Time;durP1;ratioP1;P1;durP2;ratioP2;P2;SDS_P1;SDS_P2;PMS_P1;PMS_P2;Temp;Humidity;BMP_temperature;BMP_pressure;BME280_temperature;BME280_humidity;BME280_pressure;Samples;Min_cycle;Max_cycle;Signal;HPM_P1;HPM_P2
2021/08/07 00:00:22;;;;;;;6.97;4.85;;;17.10;94.50;;;;;;4952559;28;20058;-52
2021/08/07 00:02:47;;;;;;;10.13;4.97;;;17.10;94.60;;;;;;4945218;29;20071;-52
2021/08/07 00:05:13;;;;;;;7.10;4.22;;;17.10;94.60;;;;;;4951347;29;20130;-52
2021/08/07 00:07:39;;;;;;;10.57;4.28;;;17.00;94.50;;;;;;4951673;28;20050;-52
2021/08/07 00:10:07;;;;;;;8.32;4.10;;;17.00;94.30;;;;;;4953556;29;20043;-52
2021/08/07 00:12:35;;;;;;;7.60;4.18;;;17.00;94.10;;;;;;4905919;28;20555;-54
2021/08/07 00:15:01;;;;;;;7.30;3.60;;;17.00;94.10;;;;;;4932906;29;20511;-51
2021/08/07 00:17:27;;;;;;;8.20;3.22;;;17.00;94.00;;;;;;4930668;28;20130;-49
2021/08/07 00:19:52;;;;;;;6.50;3.38;;;16.90;93.90;;;;;;4971764;28;20126;-50
2021/08/07 00:22:18;;;;;;;9.95;3.60;;;16.90;93.80;;;;;;4971474;28;20054;-54
2021/08/07 00:24:45;;;;;;;7.90;3.30;;;16.80;93.60;;;;;;4952877;28;20047;-48
2021/08/07 00:27:11;;;;;;;8.25;3.17;;;16.90;93.60;;;;;;4935555;29;20508;-49
2021/08/07 00:29:36;;;;;;;7.97;3.38;;;16.80;93.40;;;;;;4951890;28;20428;-50
2021/08/07 00:32:03;;;;;;;7.32;3.22;;;16.80;93.40;;;;;;4954973;29;20077;-51
2021/08/07 00:34:29;;;;;;;10.57;2.83;;;16.80;93.30;;;;;;4956194;28;20069;-51
2021/08/07 00:36:55;;;;;;;5.45;2.72;;;16.70;93.20;;;;;;4944858;28;20039;-51
2021/08/07 00:39:20;;;;;;;7.13;2.83;;;16.70;93.20;;;;;;4969187;28;20051;-51
2021/08/07 00:41:46;;;;;;;5.68;2.80;;;16.70;93.10;;;;;;4971920;28;20049;-48
2021/08/07 00:44:12;;;;;;;6.30;2.85;;;16.70;93.10;;;;;;4939821;29;20047;-51
2021/08/07 00:46:38;;;;;;;5.85;2.60;;;16.70;93.00;;;;;;4952402;28;20526;-52
2021/08/07 00:49:04;;;;;;;7.28;2.60;;;16.70;93.00;;;;;;4919008;29;20457;-51
2021/08/07 00:51:31;;;;;;;3.92;2.38;;;16.70;92.90;;;;;;4947495;29;20058;-49
2021/08/07 00:53:57;;;;;;;7.95;2.40;;;16.60;92.80;;;;;;4954798;28;20051;-48
2021/08/07 00:56:23;;;;;;;5.20;2.45;;;16.60;92.70;;;;;;4956417;28;20047;-51
2021/08/07 00:58:49;;;;;;;5.60;2.60;;;16.60;92.70;;;;;;4958523;28;20074;-53
2021/08/07 01:01:16;;;;;;;5.50;2.22;;;16.60;92.60;;;;;;4959113;28;20051;-51
2021/08/07 01:03:47;;;;;;;6.93;2.63;;;16.60;92.50;;;;;;4972206;28;20042;-52
2021/08/07 01:06:49;;;;;;;7.20;2.40;;;16.60;92.50;;;;;;4958118;28;20042;-49
2021/08/07 01:09:25;;;;;;;5.32;2.28;;;16.60;92.40;;;;;;4950830;28;20419;-50
2021/08/07 01:12:02;;;;;;;6.75;2.50;;;16.60;92.40;;;;;;4951862;29;20122;-51
2021/08/07 01:14:34;;;;;;;8.77;3.33;;;16.50;92.40;;;;;;4955938;28;20043;-50
2021/08/07 01:17:00;;;;;;;6.40;2.60;;;16.60;92.40;;;;;;4945565;28;20035;-51
2021/08/07 01:19:47;;;;;;;5.55;2.55;;;16.60;92.40;;;;;;4947669;29;21189;-50
2021/08/07 01:22:18;;;;;;;5.20;2.33;;;16.50;92.50;;;;;;4918548;29;20499;-51
2021/08/07 01:25:02;;;;;;;5.30;2.15;;;16.60;92.30;;;;;;4954026;28;20460;-53
2021/08/07 01:27:37;;;;;;;6.35;2.60;;;16.60;92.20;;;;;;4960505;28;20039;-53
2021/08/07 01:30:06;;;;;;;8.57;2.55;;;16.50;92.20;;;;;;4953308;28;20392;-48
2021/08/07 01:32:33;;;;;;;7.72;2.75;;;16.60;92.20;;;;;;4948080;29;20082;-51
2021/08/07 01:35:00;;;;;;;5.10;2.67;;;16.60;92.10;;;;;;4945280;29;20053;-47
2021/08/07 01:37:26;;;;;;;7.20;2.63;;;16.50;92.10;;;;;;4950188;28;20057;-54
2021/08/07 01:39:56;;;;;;;6.70;2.60;;;16.50;92.20;;;;;;4948386;29;20047;-49
2021/08/07 01:42:23;;;;;;;5.78;2.47;;;16.50;92.20;;;;;;4942615;28;20047;-53
2021/08/07 01:44:49;;;;;;;5.65;2.30;;;16.50;92.10;;;;;;4942081;29;20123;-49
2021/08/07 01:47:46;;;;;;;4.43;2.58;;;16.50;92.20;;;;;;4955458;29;20458;-54
2021/08/07 01:50:23;;;;;;;7.03;2.85;;;16.50;92.20;;;;;;4954946;28;20500;-52
2021/08/07 01:52:54;;;;;;;4.47;2.60;;;16.50;92.20;;;;;;4953780;28;20098;-51
2021/08/07 01:55:36;;;;;;;6.15;2.83;;;16.50;92.20;;;;;;4947883;28;20047;-51
2021/08/07 01:58:04;;;;;;;;;;;16.50;92.20;;;;;;4950462;29;20040;-51
2021/08/07 02:00:30;;;;;;;6.72;2.80;;;16.50;92.20;;;;;;4929176;29;20037;-48
2021/08/07 02:02:56;;;;;;;5.72;2.83;;;16.40;92.30;;;;;;4951276;29;20130;-51
2021/08/07 02:05:22;;;;;;;8.35;2.90;;;16.40;92.20;;;;;;4953110;28;20186;-52
2021/08/07 02:07:50;;;;;;;5.97;2.60;;;16.40;92.20;;;;;;4957133;28;20545;-52
2021/08/07 02:10:17;;;;;;;7.50;3.05;;;16.40;92.10;;;;;;4953973;29;20051;-54
2021/08/07 02:12:44;;;;;;;9.45;3.00;;;16.40;92.20;;;;;;4951540;28;20050;-54
2021/08/07 02:15:12;;;;;;;7.63;3.00;;;16.40;92.20;;;;;;4949621;28;20050;-53
2021/08/07 02:17:41;;;;;;;8.15;2.60;;;16.40;92.20;;;;;;4953849;29;20043;-52
2021/08/07 02:20:08;;;;;;;6.40;2.60;;;16.30;92.20;;;;;;4949977;28;20042;-51
2021/08/07 02:22:33;;;;;;;6.05;2.75;;;16.30;92.20;;;;;;4953110;28;20051;-54
2021/08/07 02:24:59;;;;;;;6.25;2.78;;;16.30;92.20;;;;;;4946480;28;20036;-54
2021/08/07 02:27:26;;;;;;;7.68;2.60;;;16.30;92.20;;;;;;4931990;29;20036;-49
2021/08/07 02:29:51;;;;;;;7.65;2.90;;;16.30;92.20;;;;;;4936006;29;20126;-51
2021/08/07 02:32:19;;;;;;;7.90;2.90;;;16.30;92.20;;;;;;4953142;28;20117;-53
2021/08/07 02:34:45;;;;;;;6.72;2.90;;;16.30;92.20;;;;;;4951591;28;20040;-54
2021/08/07 02:37:12;;;;;;;8.15;2.90;;;16.30;92.30;;;;;;4951510;28;20500;-52
2021/08/07 02:39:39;;;;;;;4.85;2.95;;;16.30;92.20;;;;;;4954358;28;20043;-51
2021/08/07 02:42:05;;;;;;;8.95;3.22;;;16.20;92.30;;;;;;4952665;28;20134;-52
2021/08/07 02:44:31;;;;;;;6.38;2.95;;;16.30;92.30;;;;;;4951386;28;20043;-53
2021/08/07 02:46:57;;;;;;;9.90;3.38;;;16.20;92.30;;;;;;4950496;28;20047;-53
2021/08/07 02:49:27;;;;;;;6.78;3.10;;;16.20;92.40;;;;;;4951114;28;20070;-52
2021/08/07 02:51:54;;;;;;;9.07;3.05;;;16.20;92.40;;;;;;4936566;29;20443;-54
2021/08/07 02:54:22;;;;;;;6.68;3.00;;;16.20;92.40;;;;;;4957589;28;20446;-49
2021/08/07 02:56:48;;;;;;;13.20;3.08;;;16.20;92.40;;;;;;4947374;28;20119;-51
2021/08/07 02:59:14;;;;;;;8.05;3.10;;;16.20;92.40;;;;;;4948245;28;20090;-51
2021/08/07 03:01:40;;;;;;;8.30;3.10;;;16.20;92.40;;;;;;4953821;29;20141;-51
2021/08/07 03:04:06;;;;;;;7.18;3.17;;;16.20;92.40;;;;;;4953871;29;20090;-48
2021/08/07 03:06:31;;;;;;;4.18;2.90;;;16.20;92.40;;;;;;4936087;29;20041;-49
2021/08/07 03:08:57;;;;;;;6.38;3.35;;;16.10;92.40;;;;;;4953679;28;20170;-52
2021/08/07 03:11:24;;;;;;;7.05;3.00;;;16.10;92.40;;;;;;4952598;29;20066;-50
2021/08/07 03:13:50;;;;;;;6.68;2.75;;;16.10;92.40;;;;;;4940390;28;20119;-49
2021/08/07 03:16:15;;;;;;;7.68;3.25;;;16.10;92.50;;;;;;4953179;29;20046;-54
2021/08/07 03:18:41;;;;;;;10.00;3.17;;;16.10;92.50;;;;;;4953563;29;20047;-53
2021/08/07 03:21:06;;;;;;;7.38;3.00;;;16.00;92.40;;;;;;4952575;29;20039;-54
2021/08/07 03:23:32;;;;;;;9.65;3.08;;;16.00;92.50;;;;;;4952831;29;20561;-51
2021/08/07 03:25:58;;;;;;;11.48;3.38;;;15.90;92.60;;;;;;4924214;29;20054;-52
2021/08/07 03:28:24;;;;;;;7.28;3.10;;;15.90;92.50;;;;;;4936096;29;20452;-52
2021/08/07 03:30:50;;;;;;;7.57;3.00;;;15.90;92.60;;;;;;4935548;29;20051;-53
2021/08/07 03:33:16;;;;;;;10.18;3.00;;;15.90;92.60;;;;;;4952568;29;20052;-54
2021/08/07 03:35:42;;;;;;;9.80;3.13;;;15.80;92.60;;;;;;4941833;28;20039;-54
2021/08/07 03:38:08;;;;;;;9.07;3.45;;;15.80;92.60;;;;;;4951955;29;20051;-51
2021/08/07 03:40:34;;;;;;;8.05;3.38;;;15.80;92.70;;;;;;4953206;29;20043;-54
2021/08/07 03:42:59;;;;;;;12.23;3.13;;;15.70;92.70;;;;;;4951887;28;20074;-50
2021/08/07 03:45:27;;;;;;;8.15;3.20;;;15.60;92.70;;;;;;4952249;29;20043;-48
2021/08/07 03:47:54;;;;;;;7.30;2.78;;;15.60;92.80;;;;;;4947306;28;20050;-48
2021/08/07 03:50:21;;;;;;;8.60;3.13;;;15.60;92.80;;;;;;4947333;29;20043;-49
2021/08/07 03:52:47;;;;;;;10.52;2.83;;;15.60;92.80;;;;;;4957787;28;20102;-54
2021/08/07 03:55:13;;;;;;;12.98;3.63;;;15.60;92.90;;;;;;4947912;29;20500;-47
2021/08/07 03:57:54;;;;;;;10.27;3.30;;;15.50;92.80;;;;;;4935298;29;20046;-54
2021/08/07 04:00:24;;;;;;;9.00;3.70;;;15.50;93.00;;;;;;4920437;29;20388;-53
2021/08/07 04:02:50;;;;;;;11.05;3.55;;;15.40;92.90;;;;;;4956684;28;20103;-54
2021/08/07 04:05:16;;;;;;;9.80;3.35;;;15.40;92.90;;;;;;4949972;28;20444;-53
2021/08/07 04:07:42;;;;;;;8.13;3.40;;;15.30;92.90;;;;;;4952617;28;20563;-55
2021/08/07 04:10:08;;;;;;;7.65;3.53;;;15.30;93.10;;;;;;4938610;28;20385;-54
2021/08/07 04:12:34;;;;;;;8.40;3.30;;;15.30;93.10;;;;;;4947201;29;20094;-55
2021/08/07 04:15:00;;;;;;;10.20;3.50;;;15.30;93.10;;;;;;4948156;29;20043;-54
2021/08/07 04:17:29;;;;;;;8.70;3.38;;;15.30;93.20;;;;;;4951310;29;20038;-53
2021/08/07 04:19:55;;;;;;;9.10;3.55;;;15.30;93.20;;;;;;4935743;29;20058;-54
2021/08/07 04:22:20;;;;;;;7.28;3.88;;;15.20;93.20;;;;;;4951697;29;20055;-51
2021/08/07 04:24:47;;;;;;;9.65;3.33;;;15.20;93.20;;;;;;4945606;29;20050;-55
2021/08/07 04:27:13;;;;;;;10.63;3.78;;;15.20;93.30;;;;;;4949204;29;20515;-48
2021/08/07 04:29:40;;;;;;;9.55;3.33;;;15.20;93.30;;;;;;4919823;29;20526;-50
2021/08/07 04:32:06;;;;;;;9.20;3.50;;;15.20;93.30;;;;;;4952588;29;20071;-51
2021/08/07 04:34:31;;;;;;;10.65;3.22;;;15.20;93.40;;;;;;4942927;28;20554;-54
2021/08/07 04:36:57;;;;;;;9.93;3.50;;;15.10;93.30;;;;;;4952700;29;20051;-50
2021/08/07 04:39:23;;;;;;;10.93;3.45;;;15.10;93.40;;;;;;4919160;29;20035;-53
2021/08/07 04:41:49;;;;;;;7.97;3.30;;;15.10;93.40;;;;;;4951488;29;20397;-51
2021/08/07 04:44:15;;;;;;;12.10;4.07;;;15.10;93.40;;;;;;4931631;29;20066;-52
2021/08/07 04:46:41;;;;;;;13.40;3.72;;;15.10;93.40;;;;;;4949597;29;20051;-52
2021/08/07 04:49:06;;;;;;;9.50;3.70;;;15.20;93.50;;;;;;4947781;29;20036;-51
2021/08/07 04:51:33;;;;;;;11.57;3.60;;;15.10;93.40;;;;;;4951367;28;20484;-50
2021/08/07 04:53:58;;;;;;;9.95;3.67;;;15.20;93.50;;;;;;4909237;29;20400;-54
2021/08/07 04:56:24;;;;;;;14.35;4.15;;;15.20;93.50;;;;;;4948772;29;20042;-51
2021/08/07 04:58:49;;;;;;;10.35;3.70;;;15.20;93.50;;;;;;4938981;28;20448;-51
2021/08/07 05:01:15;;;;;;;8.82;3.65;;;15.20;93.50;;;;;;4946553;29;20054;-52
2021/08/07 05:03:42;;;;;;;10.65;3.67;;;15.20;93.50;;;;;;4939658;29;20122;-53
2021/08/07 05:06:08;;;;;;;9.27;3.60;;;15.20;93.50;;;;;;4925495;29;20684;-50
2021/08/07 05:08:38;;;;;;;10.60;3.33;;;15.20;93.50;;;;;;4948976;29;20097;-50
2021/08/07 05:11:04;;;;;;;12.05;3.67;;;15.20;93.50;;;;;;4934726;29;20066;-51
2021/08/07 05:13:33;;;;;;;12.63;4.22;;;15.20;93.50;;;;;;4946677;29;20051;-52
2021/08/07 05:15:59;;;;;;;8.68;4.10;;;15.20;93.60;;;;;;4944970;28;20039;-55
2021/08/07 05:18:25;;;;;;;11.95;4.18;;;15.20;93.60;;;;;;4955502;29;20051;-51
2021/08/07 05:20:53;;;;;;;8.75;4.18;;;15.30;93.70;;;;;;4962917;28;20098;-51
2021/08/07 05:23:19;;;;;;;9.75;4.40;;;15.30;93.70;;;;;;4953520;29;20035;-52
2021/08/07 05:25:46;;;;;;;11.15;4.82;;;15.30;93.80;;;;;;4955856;29;20047;-50
2021/08/07 05:28:14;;;;;;;14.23;4.55;;;15.40;93.80;;;;;;4922806;29;20472;-49
2021/08/07 05:30:40;;;;;;;9.13;4.28;;;15.50;93.90;;;;;;4934547;29;20575;-51
2021/08/07 05:33:06;;;;;;;10.43;4.40;;;15.50;94.00;;;;;;4954515;29;20492;-50
2021/08/07 05:35:32;;;;;;;14.32;4.80;;;15.60;94.00;;;;;;4954787;28;20423;-52
2021/08/07 05:37:57;;;;;;;12.15;4.70;;;15.70;94.00;;;;;;4954795;29;20439;-52
2021/08/07 05:40:23;;;;;;;11.02;4.70;;;15.60;94.00;;;;;;4913346;29;20532;-51
2021/08/07 05:42:49;;;;;;;10.07;4.85;;;15.70;94.00;;;;;;4934538;29;20099;-53
2021/08/07 05:45:15;;;;;;;9.88;4.70;;;15.70;94.00;;;;;;4952439;29;20066;-51
2021/08/07 05:47:41;;;;;;;11.48;4.95;;;15.80;94.10;;;;;;4950610;28;20126;-55
2021/08/07 05:50:08;;;;;;;13.90;5.25;;;15.80;94.10;;;;;;4948430;29;20122;-51
2021/08/07 05:52:34;;;;;;;10.43;4.82;;;15.80;94.10;;;;;;4946019;28;20049;-49
2021/08/07 05:55:00;;;;;;;9.43;4.72;;;15.80;94.10;;;;;;4948710;29;20051;-49
2021/08/07 05:57:26;;;;;;;11.18;5.32;;;15.80;94.20;;;;;;4943594;28;20131;-51
2021/08/07 05:59:51;;;;;;;13.45;5.68;;;15.80;94.20;;;;;;4942728;29;20095;-51
2021/08/07 06:02:17;;;;;;;11.63;5.20;;;15.80;94.20;;;;;;4949801;29;20047;-48
2021/08/07 06:04:43;;;;;;;11.18;4.90;;;15.80;94.30;;;;;;4914180;29;20036;-52
2021/08/07 06:07:09;;;;;;;9.90;5.78;;;15.80;94.30;;;;;;4948764;28;20054;-51
2021/08/07 06:09:35;;;;;;;10.68;5.53;;;15.90;94.40;;;;;;4954259;28;20509;-49
2021/08/07 06:12:01;;;;;;;10.07;4.75;;;15.90;94.50;;;;;;4968150;28;20392;-49
2021/08/07 06:14:29;;;;;;;12.68;5.57;;;15.90;94.60;;;;;;4948791;29;20043;-53
2021/08/07 06:16:55;;;;;;;12.57;5.47;;;15.90;94.50;;;;;;4949023;29;20043;-49
2021/08/07 06:19:21;;;;;;;13.43;6.28;;;15.90;94.60;;;;;;4937158;29;20070;-52
2021/08/07 06:21:47;;;;;;;12.68;5.97;;;15.90;94.60;;;;;;4947437;29;20035;-49
2021/08/07 06:24:12;;;;;;;12.13;5.25;;;16.00;94.70;;;;;;4952995;29;20039;-49
2021/08/07 06:26:38;;;;;;;11.48;6.40;;;16.00;94.80;;;;;;4953658;28;20043;-52
2021/08/07 06:29:04;;;;;;;14.98;5.78;;;16.00;94.80;;;;;;4940391;28;20145;-52
2021/08/07 06:31:30;;;;;;;13.35;6.15;;;16.10;94.80;;;;;;4946861;28;20059;-48
2021/08/07 06:33:57;;;;;;;9.93;5.38;;;16.20;94.80;;;;;;4935866;29;20504;-48
2021/08/07 06:36:24;;;;;;;9.98;5.57;;;16.30;94.70;;;;;;4953748;29;20063;-51
2021/08/07 06:38:50;;;;;;;9.65;6.35;;;16.30;94.60;;;;;;4935735;29;20047;-50
2021/08/07 06:41:16;;;;;;;12.05;5.93;;;16.40;94.60;;;;;;4952367;29;20102;-51
2021/08/07 06:43:42;;;;;;;10.52;5.55;;;16.40;94.60;;;;;;4937590;29;20035;-50
2021/08/07 06:46:09;;;;;;;11.35;5.85;;;16.40;94.50;;;;;;4911795;29;20096;-49
2021/08/07 06:48:37;;;;;;;12.07;5.72;;;16.40;94.50;;;;;;4936872;28;20047;-51
2021/08/07 06:51:04;;;;;;;12.43;4.97;;;16.50;94.50;;;;;;4951525;28;20130;-52
2021/08/07 06:53:29;;;;;;;14.20;5.50;;;16.40;94.40;;;;;;4946852;29;20130;-52
2021/08/07 06:55:55;;;;;;;12.63;5.28;;;16.50;94.40;;;;;;4941910;28;20118;-52
2021/08/07 06:58:20;;;;;;;11.05;5.00;;;16.50;94.30;;;;;;4938830;28;20139;-49
2021/08/07 07:00:46;;;;;;;12.25;5.07;;;16.60;94.30;;;;;;4941696;29;20047;-49
2021/08/07 07:03:11;;;;;;;10.00;5.32;;;16.70;94.20;;;;;;4955703;28;20132;-51
2021/08/07 07:05:37;;;;;;;11.25;5.15;;;16.80;94.10;;;;;;4951960;29;20039;-52
2021/08/07 07:08:03;;;;;;;10.05;4.53;;;16.90;94.10;;;;;;4950989;28;20133;-52
2021/08/07 07:10:30;;;;;;;10.98;4.90;;;17.00;93.80;;;;;;4949734;28;20067;-52
2021/08/07 07:12:56;;;;;;;8.13;4.78;;;17.10;93.80;;;;;;4938938;28;20046;-51
2021/08/07 07:15:23;;;;;;;12.00;4.97;;;17.10;93.70;;;;;;4933897;29;20058;-52
2021/08/07 07:17:49;;;;;;;10.82;4.95;;;17.20;93.60;;;;;;4953965;28;20099;-52
2021/08/07 07:20:15;;;;;;;13.60;4.57;;;17.30;93.40;;;;;;4950014;28;20043;-52
2021/08/07 07:22:42;;;;;;;8.95;4.18;;;17.30;93.30;;;;;;4946798;28;20057;-50
2021/08/07 07:25:10;;;;;;;10.63;4.03;;;17.50;93.30;;;;;;4952138;28;20423;-51
2021/08/07 07:27:36;;;;;;;9.48;3.58;;;17.60;93.10;;;;;;4956412;28;20043;-54
2021/08/07 07:30:03;;;;;;;10.65;3.88;;;17.60;92.80;;;;;;4949233;28;20043;-53
2021/08/07 07:32:30;;;;;;;7.00;3.53;;;17.60;92.40;;;;;;4948300;28;20051;-49
2021/08/07 07:35:02;;;;;;;6.38;2.60;;;17.60;92.20;;;;;;4920671;28;20051;-50
2021/08/07 07:37:28;;;;;;;7.75;2.40;;;17.60;92.00;;;;;;4919466;28;20077;-49
2021/08/07 07:39:54;;;;;;;8.35;2.75;;;17.60;91.80;;;;;;4952974;28;20153;-51
2021/08/07 07:42:20;;;;;;;5.80;2.58;;;17.70;91.60;;;;;;4953419;28;20134;-54
2021/08/07 07:44:45;;;;;;;7.38;3.03;;;17.70;91.50;;;;;;4952010;28;20031;-54
2021/08/07 07:47:11;;;;;;;4.65;2.58;;;17.70;91.00;;;;;;4954203;28;20061;-54
2021/08/07 07:49:36;;;;;;;5.43;2.53;;;17.70;91.00;;;;;;4950145;28;20043;-54
2021/08/07 07:52:03;;;;;;;7.72;2.35;;;17.70;91.10;;;;;;4951338;28;20058;-54
2021/08/07 07:54:29;;;;;;;5.75;2.53;;;17.80;91.00;;;;;;4939242;28;20035;-54
2021/08/07 07:56:55;;;;;;;5.78;2.60;;;17.90;90.80;;;;;;4956848;28;20054;-54
2021/08/07 07:59:22;;;;;;;8.23;2.28;;;17.90;90.60;;;;;;4953544;28;20066;-54
2021/08/07 08:01:48;;;;;;;6.43;2.80;;;17.90;90.60;;;;;;4921152;28;20040;-53
2021/08/07 08:04:13;;;;;;;7.35;2.13;;;17.90;90.50;;;;;;4951286;28;20309;-54
2021/08/07 08:06:40;;;;;;;8.35;2.40;;;17.90;90.50;;;;;;4953914;28;20035;-55
2021/08/07 08:09:07;;;;;;;3.95;2.00;;;17.90;90.40;;;;;;4921032;28;20134;-53
2021/08/07 08:11:32;;;;;;;3.45;1.83;;;17.90;90.40;;;;;;4948975;28;20118;-53
2021/08/07 08:14:00;;;;;;;4.65;1.92;;;17.90;90.20;;;;;;4950326;28;20035;-52
2021/08/07 08:16:27;;;;;;;5.38;2.10;;;17.90;90.00;;;;;;4935455;29;20047;-54
2021/08/07 08:18:52;;;;;;;9.07;1.98;;;18.00;90.10;;;;;;4930154;28;20507;-52
2021/08/07 08:21:19;;;;;;;5.00;1.85;;;18.00;89.80;;;;;;4955877;28;20043;-55
2021/08/07 08:23:46;;;;;;;3.58;1.65;;;18.10;89.20;;;;;;4944922;28;20127;-54
2021/08/07 08:26:13;;;;;;;5.20;1.98;;;18.20;88.90;;;;;;4951628;28;20061;-55
2021/08/07 08:28:43;;;;;;;3.95;1.73;;;18.30;88.80;;;;;;4939519;28;20054;-54
2021/08/07 08:31:10;;;;;;;5.00;1.70;;;18.40;88.60;;;;;;4948294;28;20047;-52
2021/08/07 08:33:36;;;;;;;6.25;1.92;;;18.40;87.80;;;;;;4929896;29;20074;-55
2021/08/07 08:36:02;;;;;;;5.00;1.58;;;18.40;86.70;;;;;;4939499;28;20042;-55
2021/08/07 08:38:27;;;;;;;3.42;1.45;;;18.40;86.10;;;;;;4951368;28;20129;-54
2021/08/07 08:40:58;;;;;;;2.60;1.30;;;18.40;85.30;;;;;;4949707;28;20093;-54
2021/08/07 08:43:24;;;;;;;4.00;1.52;;;18.40;85.70;;;;;;4950080;28;20071;-54
2021/08/07 08:45:50;;;;;;;7.60;1.50;;;18.60;86.00;;;;;;4950415;28;20066;-55
2021/08/07 08:48:19;;;;;;;4.07;1.50;;;18.70;85.50;;;;;;4959050;28;20046;-54
2021/08/07 08:50:47;;;;;;;6.43;1.48;;;18.90;84.90;;;;;;4948815;28;20074;-51
2021/08/07 08:53:13;;;;;;;3.45;1.30;;;19.00;84.50;;;;;;4956060;28;20043;-50
2021/08/07 08:55:39;;;;;;;4.97;1.50;;;19.10;84.30;;;;;;4952293;28;20516;-55
2021/08/07 08:58:05;;;;;;;5.13;1.52;;;19.00;83.80;;;;;;4941410;29;20045;-49
2021/08/07 09:00:31;;;;;;;2.78;1.40;;;19.20;83.20;;;;;;4962095;28;20468;-48
2021/08/07 09:02:57;;;;;;;3.40;1.38;;;19.20;83.60;;;;;;4957050;28;20039;-53
2021/08/07 09:05:22;;;;;;;2.47;1.13;;;19.20;83.60;;;;;;4955966;28;20537;-50
2021/08/07 09:07:48;;;;;;;4.60;1.52;;;19.20;83.80;;;;;;4961996;28;20043;-51
2021/08/07 09:10:15;;;;;;;4.28;1.77;;;19.30;83.60;;;;;;4959551;28;20053;-51
2021/08/07 09:12:45;;;;;;;4.30;1.65;;;19.30;82.70;;;;;;4953224;28;20036;-51
2021/08/07 09:15:37;;;;;;;4.28;1.60;;;19.40;83.00;;;;;;4957134;28;20047;-50
2021/08/07 09:18:16;;;;;;;4.38;1.42;;;19.50;82.50;;;;;;4956793;28;20051;-52
2021/08/07 09:20:45;;;;;;;8.90;1.90;;;19.60;82.90;;;;;;4956474;28;20410;-51
2021/08/07 09:23:10;;;;;;;3.70;1.33;;;19.80;82.90;;;;;;4975291;28;20077;-54
2021/08/07 09:25:45;;;;;;;5.72;1.50;;;19.90;82.50;;;;;;4965230;28;20070;-55
2021/08/07 09:28:11;;;;;;;5.32;1.80;;;19.90;81.90;;;;;;4958981;28;20050;-55
2021/08/07 09:30:41;;;;;;;4.18;1.40;;;19.90;81.80;;;;;;4969850;28;20039;-56
2021/08/07 09:33:13;;;;;;;2.45;1.50;;;20.00;81.80;;;;;;4969510;28;20038;-57
2021/08/07 09:35:44;;;;;;;5.43;1.87;;;20.20;81.70;;;;;;4962631;28;20480;-56
2021/08/07 09:38:19;;;;;;;5.50;1.48;;;20.30;80.60;;;;;;4913715;29;20074;-56
2021/08/07 09:40:48;;;;;;;4.72;1.73;;;20.30;79.80;;;;;;4948773;28;20066;-56
2021/08/07 09:43:16;;;;;;;3.30;1.48;;;20.30;80.00;;;;;;4920021;29;20052;-57
2021/08/07 09:45:43;;;;;;;5.60;1.80;;;20.20;80.30;;;;;;4956867;29;20043;-57
2021/08/07 09:48:13;;;;;;;3.38;1.27;;;20.10;80.60;;;;;;4940811;29;20039;-52
2021/08/07 09:50:40;;;;;;;6.30;1.73;;;20.00;80.90;;;;;;4945582;28;20044;-54
2021/08/07 09:53:21;;;;;;;2.88;1.42;;;19.90;81.00;;;;;;4958920;28;20496;-54
2021/08/07 09:56:03;;;;;;;5.70;1.80;;;19.80;80.70;;;;;;4965323;28;20089;-54
2021/08/07 09:58:29;;;;;;;3.45;1.65;;;19.90;81.20;;;;;;4958650;28;20310;-54
2021/08/07 10:00:55;;;;;;;5.70;1.60;;;20.00;81.40;;;;;;4923750;28;20138;-54
2021/08/07 10:03:23;;;;;;;3.38;1.63;;;20.10;81.90;;;;;;4938740;28;20087;-52
2021/08/07 10:05:50;;;;;;;8.27;1.85;;;20.10;81.70;;;;;;4948699;28;20031;-50
2021/08/07 10:08:16;;;;;;;6.18;1.73;;;20.10;81.30;;;;;;4951140;29;20046;-50
2021/08/07 10:10:44;;;;;;;5.88;1.60;;;20.20;80.90;;;;;;4944875;29;20048;-50
2021/08/07 10:13:10;;;;;;;3.80;1.30;;;20.30;80.40;;;;;;4948994;29;20139;-50
2021/08/07 10:15:37;;;;;;;3.97;1.73;;;20.30;80.50;;;;;;4946113;29;20038;-52
2021/08/07 10:18:04;;;;;;;5.57;1.70;;;20.30;80.40;;;;;;4956278;29;20039;-53
2021/08/07 10:20:32;;;;;;;5.13;1.90;;;20.40;79.80;;;;;;4958585;29;20058;-53
2021/08/07 10:22:58;;;;;;;4.80;1.60;;;20.50;78.60;;;;;;4955943;29;20051;-54
2021/08/07 10:25:25;;;;;;;3.90;1.55;;;20.60;79.30;;;;;;4917638;29;20051;-53
2021/08/07 10:28:03;;;;;;;3.38;1.60;;;20.80;79.40;;;;;;4945176;29;20064;-52
2021/08/07 10:30:33;;;;;;;3.00;1.40;;;21.00;79.00;;;;;;4942013;29;20047;-53
2021/08/07 10:33:02;;;;;;;4.28;1.75;;;21.20;78.50;;;;;;4941799;29;20082;-57
2021/08/07 10:35:29;;;;;;;4.68;1.50;;;21.30;77.00;;;;;;4942520;29;20068;-55
2021/08/07 10:37:58;;;;;;;3.50;1.42;;;21.40;76.70;;;;;;4938944;28;20105;-53
2021/08/07 10:40:25;;;;;;;3.92;1.60;;;21.60;75.60;;;;;;4946371;28;20035;-53
2021/08/07 10:42:53;;;;;;;3.80;1.25;;;21.70;75.60;;;;;;4946630;28;20039;-52
2021/08/07 10:45:20;;;;;;;5.53;1.33;;;21.70;75.30;;;;;;4943251;28;20039;-51
2021/08/07 10:47:49;;;;;;;5.53;1.60;;;21.80;74.80;;;;;;4945511;29;20043;-51
2021/08/07 10:50:29;;;;;;;5.30;1.42;;;21.90;73.90;;;;;;4948732;29;20042;-51
2021/08/07 10:52:58;;;;;;;3.30;1.30;;;21.90;72.60;;;;;;4951793;29;20035;-53
2021/08/07 10:55:43;;;;;;;3.80;1.60;;;21.70;73.80;;;;;;4941146;28;20567;-51
2021/08/07 10:58:37;;;;;;;2.45;1.45;;;21.50;72.50;;;;;;4943550;28;20094;-53
2021/08/07 11:01:21;;;;;;;7.63;1.95;;;21.30;72.10;;;;;;4939129;29;20405;-51
2021/08/07 11:04:02;;;;;;;4.50;1.75;;;21.10;75.80;;;;;;4950019;29;20039;-50
2021/08/07 11:06:37;;;;;;;5.43;1.40;;;20.90;75.40;;;;;;4949866;28;20083;-52
2021/08/07 11:09:34;;;;;;;3.83;1.20;;;21.00;76.60;;;;;;4944332;28;20036;-51
2021/08/07 11:12:05;;;;;;;4.18;1.33;;;21.10;75.30;;;;;;4947039;29;20098;-51
2021/08/07 11:14:34;;;;;;;5.82;1.40;;;21.10;74.10;;;;;;4947074;28;20043;-49
2021/08/07 11:17:03;;;;;;;3.33;1.30;;;21.10;71.60;;;;;;4950660;28;20038;-52
2021/08/07 11:19:54;;;;;;;4.40;1.50;;;21.00;71.60;;;;;;4953327;28;20070;-51
2021/08/07 11:22:40;;;;;;;4.22;1.50;;;20.90;72.60;;;;;;4950852;28;20047;-53
2021/08/07 11:25:10;;;;;;;5.10;1.77;;;20.80;73.40;;;;;;4950155;28;20066;-53
2021/08/07 11:28:01;;;;;;;5.75;1.52;;;20.70;74.20;;;;;;4954540;28;20071;-55
2021/08/07 11:30:27;;;;;;;3.28;1.70;;;20.70;74.30;;;;;;4943281;28;20118;-54
2021/08/07 11:32:57;;;;;;;4.80;1.70;;;20.60;75.30;;;;;;4954927;28;20083;-55
2021/08/07 11:35:30;;;;;;;4.40;1.90;;;20.60;76.10;;;;;;4954079;28;20506;-55
2021/08/07 11:38:13;;;;;;;3.35;1.63;;;20.40;76.50;;;;;;4952365;28;20040;-54
2021/08/07 11:40:43;;;;;;;4.85;1.70;;;20.20;77.20;;;;;;4949955;28;20082;-55
2021/08/07 11:43:21;;;;;;;5.10;1.60;;;20.10;78.30;;;;;;4951462;28;20047;-55
2021/08/07 11:46:00;;;;;;;3.17;1.70;;;20.30;79.70;;;;;;4933357;28;20106;-55
2021/08/07 11:48:33;;;;;;;3.35;1.95;;;20.60;80.40;;;;;;4958867;28;20114;-55
2021/08/07 11:51:04;;;;;;;2.80;1.58;;;20.80;79.30;;;;;;4952537;28;20083;-55
2021/08/07 11:53:30;;;;;;;4.28;1.60;;;21.10;78.50;;;;;;4933213;28;20054;-54
2021/08/07 11:56:01;;;;;;;5.07;1.90;;;21.30;77.10;;;;;;4953553;28;20054;-51
2021/08/07 11:58:29;;;;;;;3.53;1.50;;;21.60;76.70;;;;;;4948521;28;20103;-55
2021/08/07 12:01:03;;;;;;;3.28;1.77;;;21.70;76.00;;;;;;4947636;28;20083;-55
2021/08/07 12:03:43;;;;;;;4.35;1.60;;;21.90;74.40;;;;;;4950576;28;20035;-55
2021/08/07 12:06:10;;;;;;;4.93;1.42;;;22.00;74.70;;;;;;4916476;29;20043;-55
2021/08/07 12:08:36;;;;;;;3.90;1.30;;;22.20;73.40;;;;;;4951197;28;20040;-51
2021/08/07 12:11:05;;;;;;;4.53;1.55;;;22.20;73.50;;;;;;4951611;29;20051;-56
2021/08/07 12:13:34;;;;;;;4.22;1.60;;;22.10;72.30;;;;;;4952574;29;20130;-54
2021/08/07 12:16:05;;;;;;;3.65;1.67;;;21.90;73.10;;;;;;4932344;29;20035;-52
2021/08/07 12:18:54;;;;;;;3.33;1.55;;;21.80;73.40;;;;;;4943292;29;20063;-55
2021/08/07 12:21:23;;;;;;;4.45;1.70;;;21.60;73.40;;;;;;4951647;29;20107;-55
2021/08/07 12:23:51;;;;;;;5.00;1.30;;;21.60;73.30;;;;;;4956418;29;20570;-55
2021/08/07 12:26:19;;;;;;;4.07;1.60;;;21.60;72.90;;;;;;4955269;28;20098;-56
2021/08/07 12:28:47;;;;;;;4.55;1.40;;;21.50;72.30;;;;;;4899816;29;20074;-54
2021/08/07 12:31:13;;;;;;;6.55;1.70;;;21.60;68.30;;;;;;4959305;29;20472;-54
2021/08/07 12:33:44;;;;;;;3.20;1.50;;;21.70;68.20;;;;;;4959028;29;20043;-55
2021/08/07 12:36:21;;;;;;;3.05;1.25;;;21.80;69.10;;;;;;4926937;29;20091;-54
2021/08/07 12:38:49;;;;;;;3.85;1.60;;;21.80;69.40;;;;;;4952183;29;20040;-54
2021/08/07 12:41:17;;;;;;;4.10;1.42;;;21.80;69.40;;;;;;4947888;29;20588;-55
2021/08/07 12:43:43;;;;;;;5.43;1.50;;;21.70;69.40;;;;;;4956697;29;20035;-54
2021/08/07 12:46:12;;;;;;;5.68;1.60;;;21.60;69.50;;;;;;4957229;29;20169;-48
2021/08/07 12:48:53;;;;;;;4.05;1.45;;;21.60;66.60;;;;;;4938037;29;20053;-49
2021/08/07 12:51:28;;;;;;;4.88;1.40;;;21.70;69.90;;;;;;4944384;29;20287;-51